deformed-offering
Saratoga-Weather Station Historical Data
Daily Summary for May 12, 2021 Units:  Metric    English   Both
Daily Weekly Monthly Yearly
  High: Low: Average:
Temperature: 25.7 °C 10.9 °C 17.8 °C
Dew Point: 13.8 °C 6.8 °C 11.3 °C
Humidity: 90% 45.8% 68%
Wind Speed: 7.2km/h 0km/h 1.9km/h
Wind Gust: 19.3km/h - -
Wind- - ESE
Pressure: 1016.8 hPa 1012.4 hPa -
Precipitation: 0 mm    
 
 
Tabular Data for May 12, 2021
Time Temperature Dew Point Pressure Wind Wind Speed Wind Gust Humidity Rainfall Rate (Hourly) solar
00:04 15.5 °C 11.1 °C 1012.8 hPa Calm     75% 0 mm 0 W/m2
00:09 15.4 °C 11.1 °C 1012.8 hPa Calm     75% 0 mm 0 W/m2
00:14 15.3 °C 10.9 °C 1012.8 hPa Calm     75% 0 mm 0 W/m2
00:19 15.3 °C 10.9 °C 1012.8 hPa Calm     75% 0 mm 0 W/m2
00:24 15.2 °C 10.8 °C 1012.4 hPa Calm     75% 0 mm 0 W/m2
00:29 15.1 °C 10.7 °C 1012.8 hPa Calm     75% 0 mm 0 W/m2
00:34 15 °C 10.6 °C 1012.8 hPa Calm     75.1% 0 mm 0 W/m2
00:39 14.9 °C 10.7 °C 1012.8 hPa Calm     76% 0 mm 0 W/m2
00:44 14.8 °C 10.7 °C 1012.8 hPa Calm     76% 0 mm 0 W/m2
00:49 14.8 °C 10.6 °C 1012.8 hPa Calm     76% 0 mm 0 W/m2
00:54 14.7 °C 10.5 °C 1012.8 hPa Calm     76% 0 mm 0 W/m2
00:59 14.6 °C 10.4 °C 1012.8 hPa Calm     76% 0 mm 0 W/m2
01:04 14.5 °C 10.3 °C 1012.8 hPa Calm     76% 0 mm 0 W/m2
01:09 14.4 °C 10.3 °C 1012.8 hPa Calm     76% 0 mm 0 W/m2
01:14 14.3 °C 10.2 °C 1012.8 hPa Calm     76.4% 0 mm 0 W/m2
01:19 14.2 °C 10.2 °C 1012.8 hPa Calm     77% 0 mm 0 W/m2
01:24 14.2 °C 10.2 °C 1012.8 hPa Calm     77% 0 mm 0 W/m2
01:29 14.1 °C 10.1 °C 1012.8 hPa Calm     77% 0 mm 0 W/m2
01:34 13.9 °C 10 °C 1012.8 hPa Calm     77% 0 mm 0 W/m2
01:39 13.9 °C 9.9 °C 1012.8 hPa Calm     77.1% 0 mm 0 W/m2
01:44 13.8 °C 10.1 °C 1012.8 hPa Calm     78% 0 mm 0 W/m2
01:49 13.7 °C 9.9 °C 1012.8 hPa Calm     78% 0 mm 0 W/m2
01:54 13.7 °C 9.9 °C 1012.8 hPa Calm     78% 0 mm 0 W/m2
01:59 13.6 °C 9.8 °C 1012.8 hPa Calm     78% 0 mm 0 W/m2
02:04 13.6 °C 9.8 °C 1012.8 hPa Calm     78.4% 0 mm 0 W/m2
02:09 13.5 °C 9.9 °C 1012.8 hPa Calm     79% 0 mm 0 W/m2
02:14 13.4 °C 9.9 °C 1012.8 hPa Calm     79% 0 mm 0 W/m2
02:19 13.3 °C 9.8 °C 1012.8 hPa Calm     79% 0 mm 0 W/m2
02:24 13.3 °C 9.7 °C 1012.8 hPa Calm     79% 0 mm 0 W/m2
02:29 13.2 °C 9.7 °C 1012.4 hPa Calm     79% 0 mm 0 W/m2
02:34 13.2 °C 9.6 °C 1012.4 hPa Calm     78.8% 0 mm 0 W/m2
02:39 13.1 °C 9.4 °C 1012.4 hPa Calm     78.4% 0 mm 0 W/m2
02:44 13 °C 9.4 °C 1012.4 hPa Calm     78.8% 0 mm 0 W/m2
02:49 12.9 °C 9.2 °C 1012.4 hPa Calm     78% 0 mm 0 W/m2
02:54 12.8 °C 9.1 °C 1012.4 hPa Calm     78% 0 mm 0 W/m2
02:59 12.8 °C 9.1 °C 1012.4 hPa Calm     78% 0 mm 0 W/m2
03:04 12.7 °C 8.7 °C 1012.8 hPa Calm     77.1% 0 mm 0 W/m2
03:09 12.6 °C 8.7 °C 1012.8 hPa Calm     77.1% 0 mm 0 W/m2
03:14 12.5 °C 8.6 °C 1012.8 hPa Calm     77.1% 0 mm 0 W/m2
03:19 12.4 °C 8.7 °C 1012.8 hPa Calm     78% 0 mm 0 W/m2
03:24 12.4 °C 8.7 °C 1012.8 hPa Calm     78% 0 mm 0 W/m2
03:29 12.3 °C 8.6 °C 1012.8 hPa Calm     78% 0 mm 0 W/m2
03:34 12.3 °C 8.6 °C 1012.8 hPa Calm     78% 0 mm 0 W/m2
03:39 12.3 °C 8.6 °C 1012.8 hPa Calm     78% 0 mm 0 W/m2
03:44 12.2 °C 8.6 °C 1012.8 hPa Calm     78.7% 0 mm 0 W/m2
03:49 12.2 °C 8.6 °C 1012.8 hPa Calm     79% 0 mm 0 W/m2
03:54 12.1 °C 8.6 °C 1012.8 hPa Calm     79% 0 mm 0 W/m2
03:59 12.1 °C 8.5 °C 1012.8 hPa Calm     79% 0 mm 0 W/m2
04:04 12 °C 8.4 °C 1012.8 hPa Calm     79% 0 mm 0 W/m2
04:09 11.9 °C 8.4 °C 1012.8 hPa Calm     79% 0 mm 0 W/m2
04:14 11.8 °C 8.3 °C 1012.8 hPa Calm     79% 0 mm 0 W/m2
04:19 11.8 °C 8.2 °C 1012.8 hPa Calm     78.4% 0 mm 0 W/m2
04:24 11.7 °C 8 °C 1012.8 hPa Calm     78% 0 mm 0 W/m2
04:29 11.7 °C 7.9 °C 1012.8 hPa Calm     78% 0 mm 0 W/m2
04:34 11.6 °C 7.8 °C 1012.8 hPa Calm     77.9% 0 mm 0 W/m2
04:39 11.6 °C 7.7 °C 1012.8 hPa Calm     77% 0 mm 0 W/m2
04:44 11.4 °C 7.4 °C 1012.8 hPa Calm     76.6% 0 mm 0 W/m2
04:49 11.4 °C 7.3 °C 1012.8 hPa Calm     75.9% 0 mm 0 W/m2
04:54 11.3 °C 7 °C 1012.8 hPa Calm     75% 0 mm 0 W/m2
04:59 11.2 °C 6.9 °C 1012.8 hPa Calm     75% 0 mm 0 W/m2
05:04 11.2 °C 6.9 °C 1012.8 hPa Calm     75% 0 mm 0 W/m2
05:09 11.1 °C 6.8 °C 1012.8 hPa Calm     75% 0 mm 0 W/m2
05:14 11.1 °C 6.8 °C 1012.8 hPa Calm     75% 0 mm 0 W/m2
05:19 11.1 °C 6.8 °C 1012.8 hPa Calm     75% 0 mm 0 W/m2
05:24 11 °C 6.8 °C 1012.8 hPa Calm     75.4% 0 mm 0 W/m2
05:29 10.9 °C 6.9 °C 1012.8 hPa Calm     76% 0 mm 0 W/m2
05:34 10.9 °C 6.9 °C 1012.8 hPa Calm     76.4% 0 mm 0 W/m2
05:39 10.9 °C 7.1 °C 1012.8 hPa Calm     77% 0 mm 0 W/m2
05:44 10.9 °C 7 °C 1012.8 hPa Calm     77.1% 0 mm 0 W/m2
05:49 10.9 °C 7.2 °C 1013.1 hPa Calm     78% 0 mm 0 W/m2
05:54 10.9 °C 7.3 °C 1013.1 hPa Calm     78.2% 0 mm 0 W/m2
05:59 10.9 °C 7.4 °C 1013.1 hPa Calm     79.1% 0 mm 0 W/m2
06:04 10.9 °C 7.6 °C 1013.1 hPa Calm     80% 0 mm 5 W/m2
06:09 10.9 °C 7.8 °C 1013.1 hPa Calm     80.9% 0 mm 7 W/m2
06:14 10.9 °C 7.8 °C 1013.1 hPa Calm     81% 0 mm 11 W/m2
06:19 10.9 °C 7.9 °C 1013.4 hPa Calm     81.6% 0 mm 16 W/m2
06:24 10.9 °C 7.9 °C 1013.4 hPa Calm     82% 0 mm 25 W/m2
06:29 10.9 °C 7.9 °C 1013.4 hPa Calm     82.1% 0 mm 25 W/m2
06:34 10.9 °C 8.1 °C 1013.4 hPa Calm     83% 0 mm 30 W/m2
06:39 10.9 °C 8.2 °C 1013.8 hPa Calm     83.1% 0 mm 35 W/m2
06:44 11 °C 8.4 °C 1013.8 hPa Calm     84% 0 mm 84 W/m2
06:49 11.1 °C 8.5 °C 1013.8 hPa Calm     84% 0 mm 116 W/m2
06:54 11.1 °C 8.5 °C 1014.1 hPa Calm     84% 0 mm 125 W/m2
06:59 11.2 °C 8.6 °C 1014.1 hPa Calm     84% 0 mm 135 W/m2
07:04 11.2 °C 8.6 °C 1014.1 hPa Calm     84% 0 mm 148 W/m2
07:09 11.3 °C 8.7 °C 1014.4 hPa North 1.1 km/h 5.6 km/h 84.1% 0 mm 162 W/m2
07:14 11.4 °C 9 °C 1014.4 hPa Calm   3.7 km/h 85% 0 mm 172 W/m2
07:19 11.6 °C 9.3 °C 1014.4 hPa North 1.4 km/h 5.6 km/h 85.9% 0 mm 194 W/m2
07:24 11.8 °C 9.6 °C 1014.4 hPa North 0.6 km/h 5.6 km/h 86.7% 0 mm 215 W/m2
07:29 11.9 °C 9.9 °C 1014.4 hPa North 1.1 km/h 5.6 km/h 87.7% 0 mm 232 W/m2
07:34 12.1 °C 10.2 °C 1014.4 hPa North 0.6 km/h 4.8 km/h 88.3% 0 mm 246 W/m2
07:39 12.3 °C 10.5 °C 1014.4 hPa North 0.5 km/h 3.7 km/h 89% 0 mm 259 W/m2
07:44 12.4 °C 10.6 °C 1014.4 hPa North 0.5 km/h 5.6 km/h 89% 0 mm 274 W/m2
07:49 12.6 °C 10.8 °C 1014.4 hPa North 1.4 km/h 5.6 km/h 89% 0 mm 303 W/m2
07:54 12.7 °C 10.9 °C 1014.4 hPa North 0.5 km/h 3.7 km/h 89% 0 mm 315 W/m2
07:59 12.8 °C 11.1 °C 1014.4 hPa North 0.3 km/h 3.7 km/h 89.4% 0 mm 333 W/m2
08:04 13 °C 11.4 °C 1014.8 hPa North 0.3 km/h 3.7 km/h 90% 0 mm 345 W/m2
08:09 13.1 °C 11.5 °C 1014.8 hPa North 0.6 km/h 3.7 km/h 90% 0 mm 336 W/m2
08:14 13.2 °C 11.6 °C 1014.8 hPa North 0.6 km/h 3.7 km/h 90% 0 mm 373 W/m2
08:19 13.3 °C 11.7 °C 1014.8 hPa North 1.8 km/h 8 km/h 90% 0 mm 389 W/m2
08:24 13.5 °C 11.9 °C 1014.8 hPa North 1.8 km/h 8 km/h 90% 0 mm 399 W/m2
08:29 13.6 °C 11.9 °C 1014.8 hPa North 0.3 km/h 3.7 km/h 89.2% 0 mm 419 W/m2
08:34 13.7 °C 11.9 °C 1014.8 hPa North 1.8 km/h 5.6 km/h 89% 0 mm 431 W/m2
08:39 13.8 °C 12 °C 1014.8 hPa North 2.4 km/h 5.6 km/h 88.8% 0 mm 449 W/m2
08:44 13.9 °C 11.9 °C 1014.8 hPa NNE 1.6 km/h 6.4 km/h 88% 0 mm 456 W/m2
08:49 14 °C 12.1 °C 1014.8 hPa NNE 1.1 km/h 5.6 km/h 88% 0 mm 473 W/m2
08:54 14.1 °C 12.1 °C 1014.8 hPa NNE 3.1 km/h 8 km/h 87.3% 0 mm 493 W/m2
08:59 14.2 °C 12.1 °C 1015.1 hPa NNE 2.7 km/h 8 km/h 86.9% 0 mm 505 W/m2
09:04 14.4 °C 12.1 °C 1015.1 hPa NNE 3.2 km/h 8 km/h 86% 0 mm 514 W/m2
09:09 14.6 °C 12.1 °C 1015.1 hPa NNE 4.2 km/h 8 km/h 85.3% 0 mm 531 W/m2
09:14 14.7 °C 12.1 °C 1015.1 hPa NNE 2.1 km/h 8 km/h 84.3% 0 mm 547 W/m2
09:19 14.8 °C 12.2 °C 1015.1 hPa NNE 1.9 km/h 5.6 km/h 84% 0 mm 561 W/m2
09:24 15 °C 12.2 °C 1015.1 hPa NNE 2.1 km/h 5.6 km/h 83.4% 0 mm 574 W/m2
09:29 15.1 °C 12.1 °C 1015.1 hPa NE 3.1 km/h 9.7 km/h 82.1% 0 mm 589 W/m2
09:34 15.3 °C 12 °C 1015.1 hPa NE 2.7 km/h 9.7 km/h 80.8% 0 mm 602 W/m2
09:39 15.5 °C 11.9 °C 1015.1 hPa NE 1.8 km/h 5.6 km/h 79.4% 0 mm 616 W/m2
09:44 15.7 °C 11.9 °C 1015.5 hPa NE 2.9 km/h 8 km/h 78.1% 0 mm 630 W/m2
09:49 15.9 °C 12 °C 1015.5 hPa NE 1 km/h 8 km/h 77.7% 0 mm 644 W/m2
09:54 16.1 °C 12.1 °C 1015.5 hPa NE 3.1 km/h 8 km/h 76.9% 0 mm 655 W/m2
09:59 16.3 °C 12.1 °C 1015.5 hPa NE 2.3 km/h 8 km/h 76.3% 0 mm 667 W/m2
10:04 16.5 °C 12.3 °C 1015.5 hPa NE 1.6 km/h 5.6 km/h 76% 0 mm 681 W/m2
10:09 16.7 °C 12.3 °C 1015.5 hPa NE 1.8 km/h 6.4 km/h 75.4% 0 mm 691 W/m2
10:14 16.9 °C 12.4 °C 1015.5 hPa ENE 2.3 km/h 8 km/h 75% 0 mm 704 W/m2
10:19 17.1 °C 12.6 °C 1015.5 hPa ENE 2.9 km/h 8 km/h 74.6% 0 mm 714 W/m2
10:24 17.3 °C 12.4 °C 1015.5 hPa North 2.1 km/h 8 km/h 73% 0 mm 721 W/m2
10:29 17.6 °C 12.2 °C 1015.5 hPa North 3.1 km/h 8 km/h 71.2% 0 mm 734 W/m2
10:34 17.8 °C 12.1 °C 1015.5 hPa NNE 2.7 km/h 8 km/h 69.4% 0 mm 744 W/m2
10:39 18.1 °C 12.3 °C 1015.5 hPa NE 1.6 km/h 8 km/h 69.3% 0 mm 757 W/m2
10:44 18.3 °C 12.7 °C 1015.5 hPa NE 1 km/h 6.4 km/h 69.7% 0 mm 762 W/m2
10:49 18.5 °C 12.4 °C 1015.5 hPa NE 3.1 km/h 9.7 km/h 67.7% 0 mm 774 W/m2
10:54 18.7 °C 12.3 °C 1015.5 hPa NNE 3.7 km/h 9.7 km/h 66.6% 0 mm 779 W/m2
10:59 19 °C 12.4 °C 1015.5 hPa NNE 1.4 km/h 9.7 km/h 65.7% 0 mm 787 W/m2
11:04 19.2 °C 12.6 °C 1015.5 hPa North 2.4 km/h 8 km/h 65.4% 0 mm 801 W/m2
11:09 19.4 °C 12.5 °C 1015.5 hPa North 1.9 km/h 8 km/h 64.3% 0 mm 806 W/m2
11:14 19.7 °C 12.7 °C 1015.5 hPa North 2.3 km/h 8 km/h 64% 0 mm 818 W/m2
11:19 19.9 °C 12.6 °C 1015.5 hPa North 1.6 km/h 8 km/h 62.9% 0 mm 825 W/m2
11:24 20.1 °C 12.7 °C 1015.5 hPa NNE 2.3 km/h 11.3 km/h 62.2% 0 mm 830 W/m2
11:29 20.3 °C 13 °C 1015.5 hPa NNE 3.4 km/h 11.3 km/h 62.9% 0 mm 838 W/m2
11:34 20.6 °C 12.9 °C 1015.5 hPa North 4.5 km/h 11.3 km/h 61.8% 0 mm 845 W/m2
11:39 20.8 °C 12.9 °C 1015.5 hPa North 4 km/h 11.3 km/h 60.7% 0 mm 848 W/m2
11:44 21 °C 13.1 °C 1015.5 hPa North 3.7 km/h 9.7 km/h 60.8% 0 mm 853 W/m2
11:49 21.2 °C 13 °C 1015.5 hPa North 3.2 km/h 9.7 km/h 59.6% 0 mm 859 W/m2
11:54 21.4 °C 13.3 °C 1015.5 hPa NE 1.1 km/h 9.7 km/h 60.2% 0 mm 864 W/m2
11:59 21.6 °C 13.3 °C 1015.5 hPa NNE 2.1 km/h 5.6 km/h 59.4% 0 mm 867 W/m2
12:04 21.7 °C 13.2 °C 1015.5 hPa North 3.7 km/h 9.7 km/h 58.6% 0 mm 873 W/m2
12:09 21.9 °C 13.2 °C 1015.5 hPa North 6.4 km/h 16.7 km/h 57.8% 0 mm 874 W/m2
12:14 22.2 °C 13.2 °C 1015.5 hPa North 4 km/h 16.1 km/h 57% 0 mm 876 W/m2
12:19 22.3 °C 13.3 °C 1015.5 hPa North 5.3 km/h 13 km/h 56.6% 0 mm 882 W/m2
12:24 22.6 °C 13.4 °C 1015.5 hPa NNE 1.8 km/h 9.7 km/h 56.3% 0 mm 882 W/m2
12:29 22.6 °C 13.6 °C 1015.5 hPa NNE 3.7 km/h 11.3 km/h 56.5% 0 mm 885 W/m2
12:34 22.7 °C 13.5 °C 1015.5 hPa NNW 3.1 km/h 11.3 km/h 56% 0 mm 887 W/m2
12:39 22.8 °C 13.6 °C 1015.5 hPa NNE 5.3 km/h 11.3 km/h 55.8% 0 mm 889 W/m2
12:44 23 °C 13.6 °C 1015.1 hPa NNE 5.6 km/h 11.3 km/h 55.7% 0 mm 889 W/m2
12:49 23.1 °C 13.6 °C 1015.1 hPa NNW 5 km/h 13 km/h 55.1% 0 mm 892 W/m2
12:54 23.3 °C 13.7 °C 1015.1 hPa NNW 4 km/h 12.9 km/h 54.9% 0 mm 892 W/m2
12:59 23.4 °C 13.6 °C 1015.1 hPa NNW 5.6 km/h 16.7 km/h 54.2% 0 mm 892 W/m2
13:04 23.4 °C 13.6 °C 1015.1 hPa NNE 6 km/h 16.7 km/h 53.8% 0 mm 892 W/m2
13:09 23.6 °C 13.7 °C 1015.1 hPa NNW 4.7 km/h 16.7 km/h 53.7% 0 mm 894 W/m2
13:14 23.7 °C 13.7 °C 1015.1 hPa NNW 5.3 km/h 11.3 km/h 53.5% 0 mm 890 W/m2
13:19 23.7 °C 13.5 °C 1015.1 hPa North 6.8 km/h 11.3 km/h 53% 0 mm 890 W/m2
13:24 23.7 °C 13.6 °C 1015.1 hPa North 6.6 km/h 16.7 km/h 53% 0 mm 889 W/m2
13:29 23.8 °C 13.6 °C 1015.1 hPa North 5.5 km/h 16.1 km/h 53% 0 mm 887 W/m2
13:34 23.8 °C 13.6 °C 1015.1 hPa NNE 5.8 km/h 16.7 km/h 52.8% 0 mm 885 W/m2
13:39 23.9 °C 13.6 °C 1015.1 hPa NNE 7.2 km/h 16.1 km/h 52.4% 0 mm 883 W/m2
13:44 24 °C 13.8 °C 1015.1 hPa North 5 km/h 12.9 km/h 53% 0 mm 878 W/m2
13:49 24.1 °C 13.6 °C 1014.8 hPa North 4 km/h 13 km/h 52% 0 mm 876 W/m2
13:54 24.2 °C 13.5 °C 1014.8 hPa NNE 5.6 km/h 13 km/h 51.2% 0 mm 873 W/m2
13:59 24.3 °C 13.6 °C 1014.8 hPa NNE 6.3 km/h 13 km/h 51.3% 0 mm 869 W/m2
14:04 24.4 °C 13.6 °C 1014.8 hPa North 4.8 km/h 11.3 km/h 50.9% 0 mm 862 W/m2
14:09 24.4 °C 13.3 °C 1014.8 hPa North 3.9 km/h 11.3 km/h 50% 0 mm 862 W/m2
14:14 24.5 °C 13.2 °C 1014.8 hPa NNE 5.8 km/h 14.8 km/h 49.5% 0 mm 859 W/m2
14:19 24.6 °C 13.2 °C 1014.8 hPa North 5.6 km/h 11.3 km/h 48.9% 0 mm 852 W/m2
14:24 24.7 °C 13 °C 1014.8 hPa NNE 6.6 km/h 13 km/h 48.2% 0 mm 848 W/m2
14:29 24.7 °C 12.9 °C 1014.8 hPa North 5.8 km/h 13 km/h 47.9% 0 mm 843 W/m2
14:34 24.8 °C 12.8 °C 1014.8 hPa North 5.6 km/h 13 km/h 47% 0 mm 838 W/m2
14:39 24.9 °C 12.8 °C 1014.8 hPa North 4 km/h 13 km/h 47% 0 mm 830 W/m2
14:44 24.9 °C 12.8 °C 1014.4 hPa NNE 4.5 km/h 12.9 km/h 47% 0 mm 825 W/m2
14:49 25 °C 12.9 °C 1014.4 hPa North 4.2 km/h 11.3 km/h 47% 0 mm 823 W/m2
14:54 25.1 °C 13 °C 1014.4 hPa North 3.9 km/h 9.7 km/h 47% 0 mm 809 W/m2
14:59 25.2 °C 12.8 °C 1014.4 hPa North 5.3 km/h 11.3 km/h 46.3% 0 mm 804 W/m2
15:04 25.2 °C 12.8 °C 1014.4 hPa North 5.3 km/h 11.3 km/h 46% 0 mm 797 W/m2
15:09 25.3 °C 12.8 °C 1014.4 hPa North 4.7 km/h 11.3 km/h 45.8% 0 mm 790 W/m2
15:14 25.4 °C 12.9 °C 1014.4 hPa North 3.9 km/h 11.3 km/h 46% 0 mm 781 W/m2
15:19 25.4 °C 13.1 °C 1014.1 hPa North 4 km/h 11.3 km/h 46.4% 0 mm 767 W/m2
15:24 25.4 °C 13.1 °C 1014.1 hPa NNE 5.1 km/h 12.9 km/h 46.5% 0 mm 760 W/m2
15:29 25.5 °C 13.2 °C 1014.1 hPa North 4 km/h 13 km/h 46.6% 0 mm 750 W/m2
15:34 25.6 °C 13.3 °C 1014.1 hPa North 4 km/h 11.3 km/h 46.8% 0 mm 739 W/m2
15:39 25.6 °C 13.3 °C 1014.1 hPa NNE 5.5 km/h 16.1 km/h 46.7% 0 mm 728 W/m2
15:44 25.6 °C 13.2 °C 1014.1 hPa NNE 5.3 km/h 16.7 km/h 46.3% 0 mm 720 W/m2
15:49 25.6 °C 13.2 °C 1014.1 hPa North 5.5 km/h 12.9 km/h 46.4% 0 mm 706 W/m2
15:54 25.7 °C 13.3 °C 1014.1 hPa North 6 km/h 13 km/h 46.4% 0 mm 695 W/m2
15:59 25.7 °C 13.4 °C 1014.1 hPa NNE 6.9 km/h 16.7 km/h 46.8% 0 mm 677 W/m2
16:04 25.7 °C 13.4 °C 1014.1 hPa NNE 7.1 km/h 18.5 km/h 46.8% 0 mm 625 W/m2
16:09 25.6 °C 13.4 °C 1014.1 hPa North 5.8 km/h 19.3 km/h 46.8% 0 mm 574 W/m2
16:14 25.6 °C 13.4 °C 1014.1 hPa North 5 km/h 13 km/h 47% 0 mm 526 W/m2
16:19 25.6 °C 13.5 °C 1014.1 hPa North 5.1 km/h 9.7 km/h 47.2% 0 mm 496 W/m2
16:24 25.6 °C 13.7 °C 1014.1 hPa North 4.7 km/h 11.3 km/h 47.9% 0 mm 491 W/m2
16:29 25.5 °C 13.7 °C 1014.1 hPa NNE 6 km/h 11.3 km/h 48% 0 mm 501 W/m2
16:34 25.5 °C 13.7 °C 1014.1 hPa NNE 6 km/h 11.3 km/h 48% 0 mm 519 W/m2
16:39 25.4 °C 13.6 °C 1014.1 hPa NNE 6.6 km/h 13 km/h 48% 0 mm 531 W/m2
16:44 25.4 °C 13.6 °C 1014.1 hPa North 3.7 km/h 12.9 km/h 48.2% 0 mm 542 W/m2
16:49 25.3 °C 13.6 °C 1013.8 hPa North 7.1 km/h 11.3 km/h 48.1% 0 mm 540 W/m2
16:54 25.2 °C 13.6 °C 1013.8 hPa NNE 2.7 km/h 11.3 km/h 48.3% 0 mm 531 W/m2
16:59 25.2 °C 13.5 °C 1013.8 hPa North 4.3 km/h 11.3 km/h 48.3% 0 mm 510 W/m2
17:04 25.1 °C 13.3 °C 1013.8 hPa North 5.6 km/h 11.1 km/h 47.9% 0 mm 501 W/m2
17:09 25.1 °C 12.9 °C 1013.8 hPa North 4.3 km/h 12.9 km/h 47% 0 mm 486 W/m2
17:14 25 °C 12.9 °C 1013.8 hPa North 2.4 km/h 13 km/h 47.2% 0 mm 468 W/m2
17:19 24.9 °C 13.2 °C 1013.8 hPa North 3.7 km/h 11.3 km/h 48.1% 0 mm 438 W/m2
17:24 24.9 °C 13.1 °C 1013.8 hPa NNE 5 km/h 11.3 km/h 47.9% 0 mm 422 W/m2
17:29 24.8 °C 12.9 °C 1013.8 hPa North 3.9 km/h 11.3 km/h 47.7% 0 mm 401 W/m2
17:34 24.8 °C 12.8 °C 1013.8 hPa North 5.3 km/h 11.3 km/h 47.4% 0 mm 366 W/m2
17:39 24.7 °C 13 °C 1013.8 hPa North 3.9 km/h 11.3 km/h 48.1% 0 mm 292 W/m2
17:44 24.7 °C 13.1 °C 1013.8 hPa NE 6.6 km/h 11.3 km/h 48.6% 0 mm 285 W/m2
17:49 24.6 °C 12.9 °C 1013.8 hPa North 6.1 km/h 16.7 km/h 48.3% 0 mm 292 W/m2
17:54 24.5 °C 13.1 °C 1013.8 hPa North 4.7 km/h 16.1 km/h 49.2% 0 mm 292 W/m2
17:59 24.4 °C 13.1 °C 1014.1 hPa North 5 km/h 11.3 km/h 49.4% 0 mm 285 W/m2
18:04 24.3 °C 12.9 °C 1014.1 hPa North 5.1 km/h 13 km/h 49% 0 mm 271 W/m2
18:09 24.2 °C 13.1 °C 1014.1 hPa NNE 5.6 km/h 12.9 km/h 49.9% 0 mm 255 W/m2
18:14 24.1 °C 13 °C 1014.1 hPa North 6.1 km/h 13 km/h 50% 0 mm 241 W/m2
18:19 23.9 °C 12.9 °C 1014.1 hPa North 4.8 km/h 11.3 km/h 50.3% 0 mm 232 W/m2
18:24 23.8 °C 13.1 °C 1014.1 hPa North 5.6 km/h 11.3 km/h 51% 0 mm 216 W/m2
18:29 23.7 °C 12.9 °C 1014.4 hPa North 4 km/h 16.7 km/h 51% 0 mm 206 W/m2
18:34 23.4 °C 12.8 °C 1014.4 hPa NNE 5.5 km/h 16.1 km/h 51.2% 0 mm 197 W/m2
18:39 23.3 °C 12.6 °C 1014.4 hPa North 4 km/h 11.3 km/h 51% 0 mm 187 W/m2
18:44 23.2 °C 12.8 °C 1014.4 hPa North 4.2 km/h 11.3 km/h 51.8% 0 mm 141 W/m2
18:49 23.1 °C 12.7 °C 1014.4 hPa North 4 km/h 11.3 km/h 52% 0 mm 134 W/m2
18:54 22.9 °C 12.5 °C 1014.4 hPa NNE 3.5 km/h 9.7 km/h 52% 0 mm 128 W/m2
18:59 22.7 °C 12.3 °C 1014.4 hPa NNE 3.5 km/h 9.7 km/h 52% 0 mm 128 W/m2
19:04 22.6 °C 12.3 °C 1014.4 hPa NNE 3.5 km/h 9.7 km/h 52.2% 0 mm 53 W/m2
19:09 22.4 °C 12.1 °C 1014.4 hPa North 2.4 km/h 13 km/h 52.1% 0 mm 33 W/m2
19:14 22.3 °C 12.2 °C 1014.4 hPa North 2.7 km/h 12.9 km/h 53% 0 mm 32 W/m2
19:19 22.2 °C 12.1 °C 1014.4 hPa North 2.1 km/h 9.7 km/h 53% 0 mm 26 W/m2
19:24 22 °C 12 °C 1014.4 hPa NNE 1.6 km/h 9.7 km/h 53% 0 mm 25 W/m2
19:29 21.9 °C 12.1 °C 1014.4 hPa North 0.6 km/h 6.4 km/h 53.9% 0 mm 25 W/m2
19:34 21.7 °C 12.1 °C 1014.8 hPa North 1.1 km/h 8 km/h 54.4% 0 mm 21 W/m2
19:39 21.6 °C 12.3 °C 1014.8 hPa North 1 km/h 8 km/h 55.6% 0 mm 19 W/m2
19:44 21.5 °C 12.3 °C 1014.8 hPa North 2.4 km/h 8 km/h 56% 0 mm 18 W/m2
19:49 21.3 °C 12.3 °C 1014.8 hPa North 2.6 km/h 11.3 km/h 56.4% 0 mm 16 W/m2
19:54 21.1 °C 12.3 °C 1014.8 hPa North 1.3 km/h 11.3 km/h 57% 0 mm 12 W/m2
19:59 20.9 °C 12.2 °C 1014.8 hPa NNE 1.3 km/h 9.7 km/h 57.4% 0 mm 9 W/m2
20:04 20.7 °C 12.3 °C 1014.8 hPa NNE 1.4 km/h 9.7 km/h 58.6% 0 mm 7 W/m2
20:09 20.6 °C 12.3 °C 1014.8 hPa North 2.9 km/h 9.7 km/h 59% 0 mm 5 W/m2
20:14 20.3 °C 12.2 °C 1015.1 hPa North 1 km/h 9.7 km/h 59.6% 0 mm 0 W/m2
20:19 20.2 °C 12.2 °C 1015.1 hPa North 1 km/h 6.4 km/h 60% 0 mm 0 W/m2
20:24 19.9 °C 11.9 °C 1015.1 hPa NNW 1.9 km/h 9.7 km/h 60% 0 mm 0 W/m2
20:29 19.7 °C 11.9 °C 1015.5 hPa North 1.3 km/h 9.7 km/h 60.8% 0 mm 0 W/m2
20:34 19.4 °C 11.7 °C 1015.5 hPa North 1 km/h 8 km/h 61% 0 mm 0 W/m2
20:39 19.2 °C 11.5 °C 1015.5 hPa North 1.4 km/h 8 km/h 61.3% 0 mm 0 W/m2
20:44 18.9 °C 11.6 °C 1015.5 hPa North 1 km/h 5.6 km/h 62.8% 0 mm 0 W/m2
20:49 18.7 °C 11.6 °C 1015.5 hPa North 1.1 km/h 6.4 km/h 63.1% 0 mm 0 W/m2
20:54 18.5 °C 11.7 °C 1015.5 hPa NNE 0.8 km/h 6.4 km/h 64.5% 0 mm 0 W/m2
20:59 18.3 °C 11.6 °C 1015.8 hPa NE 0.2 km/h 5.6 km/h 65% 0 mm 0 W/m2
21:04 18.1 °C 11.4 °C 1015.8 hPa Calm     65% 0 mm 0 W/m2
21:09 17.8 °C 11.2 °C 1015.8 hPa Calm     65.2% 0 mm 0 W/m2
21:14 17.7 °C 11.1 °C 1016.1 hPa Calm     65.2% 0 mm 0 W/m2
21:19 17.6 °C 11.1 °C 1016.1 hPa NNE 1.4 km/h 8 km/h 66.1% 0 mm 0 W/m2
21:24 17.4 °C 11.2 °C 1016.1 hPa NNE 1.4 km/h 8 km/h 67% 0 mm 0 W/m2
21:29 17.2 °C 11.1 °C 1016.1 hPa North 1.3 km/h 6.4 km/h 67% 0 mm 0 W/m2
21:34 17.1 °C 11.1 °C 1016.1 hPa North 0.3 km/h 3.7 km/h 67.6% 0 mm 0 W/m2
21:39 16.9 °C 11 °C 1016.1 hPa Calm   1.6 km/h 68% 0 mm 0 W/m2
21:44 16.8 °C 10.9 °C 1016.1 hPa Calm     68.1% 0 mm 0 W/m2
21:49 16.7 °C 10.9 °C 1016.1 hPa Calm     69% 0 mm 0 W/m2
21:54 16.6 °C 10.9 °C 1016.5 hPa Calm     69.2% 0 mm 0 W/m2
21:59 16.4 °C 10.9 °C 1016.5 hPa Calm     70% 0 mm 0 W/m2
22:04 16.3 °C 10.9 °C 1016.5 hPa Calm     70.2% 0 mm 0 W/m2
22:09 16.2 °C 10.9 °C 1016.5 hPa Calm     71% 0 mm 0 W/m2
22:14 16.1 °C 10.9 °C 1016.5 hPa Calm     71.4% 0 mm 0 W/m2
22:19 15.9 °C 10.9 °C 1016.5 hPa Calm     72.2% 0 mm 0 W/m2
22:24 15.8 °C 11 °C 1016.5 hPa Calm     73.1% 0 mm 0 W/m2
22:29 15.7 °C 11.1 °C 1016.5 hPa Calm     74% 0 mm 0 W/m2
22:34 15.6 °C 11 °C 1016.5 hPa Calm     74% 0 mm 0 W/m2
22:39 15.5 °C 10.9 °C 1016.5 hPa Calm     74.2% 0 mm 0 W/m2
22:44 15.3 °C 10.9 °C 1016.5 hPa Calm     75% 0 mm 0 W/m2
22:49 15.2 °C 10.9 °C 1016.5 hPa Calm     75.4% 0 mm 0 W/m2
22:54 15.1 °C 10.9 °C 1016.5 hPa Calm     76% 0 mm 0 W/m2
22:59 15 °C 10.9 °C 1016.5 hPa Calm     76.6% 0 mm 0 W/m2
23:04 14.9 °C 10.9 °C 1016.5 hPa Calm     77.3% 0 mm 0 W/m2
23:09 14.8 °C 11.1 °C 1016.5 hPa Calm     78% 0 mm 0 W/m2
23:14 14.7 °C 10.9 °C 1016.5 hPa Calm     78% 0 mm 0 W/m2
23:19 14.6 °C 10.8 °C 1016.5 hPa Calm     78% 0 mm 0 W/m2
23:24 14.5 °C 10.7 °C 1016.5 hPa Calm     78% 0 mm 0 W/m2
23:29 14.4 °C 10.8 °C 1016.5 hPa Calm     78.7% 0 mm 0 W/m2
23:34 14.4 °C 10.8 °C 1016.5 hPa Calm     79% 0 mm 0 W/m2
23:39 14.3 °C 10.7 °C 1016.8 hPa Calm     79% 0 mm 0 W/m2
23:44 14.2 °C 10.6 °C 1016.8 hPa Calm     79.3% 0 mm 0 W/m2
23:49 14.1 °C 10.6 °C 1016.8 hPa Calm     79.3% 0 mm 0 W/m2
23:54 14 °C 10.6 °C 1016.8 hPa Calm     80% 0 mm 0 W/m2
23:59 13.9 °C 10.5 °C 1016.8 hPa Calm     80% 0 mm 0 W/m2
Saratoga, California, USA
Compliments of Weather Underground - 2 mb

WU-history PHP script courtesy of Juneau County Weather and modified for WU/TWC API use by Saratoga-weather.org

This script set is available on GitHub.

deformed-offering